Los Angeles International Airport
KLAX : now visible

Airfield :











YOU CAN JOIN US ON...

 
LOGIN :

Register | Disclaimer

   EN    FR    IT 

 









Legend :    VFR   Marginal VFR   IFR   Intensive IFR   Very Intensive IFR
Visi :
Ceiling :
>= 8 km
>= 3000ft
5 to 8 km
1000 to 3000 ft
1500m to 5 km
500 to 1000 ft
800 to 1500m
200 to 500 ft
< 800m
< 200 ft
Symbols :   Thunderstorms  Fog  Heavy snow  Heavy precipitations  Wind > 20 kt






- Airport Elevation : 125 ft
- IATA code : LAX


KLAX - Los Angeles International

CURRENT METAR :
  • 250453Z 26011KT 10SM FEW015 SCT030 14/11 A2994 RMK AO2 SLP137 T01440111

EXPIRED METARs :
  • 250353Z 24008KT 10SM FEW015 SCT030 15/11 A2992 RMK AO2 SLP131 T01500111
  • 250253Z 26013KT 10SM FEW015 SCT030 15/11 A2991 RMK AO2 SLP129 T01500106 55005
  • 250153Z 27014KT 10SM SCT015 SCT030 16/11 A2991 RMK AO2 SLP128 T01560111
  • 250053Z 27015KT 10SM SCT015 SCT035 17/12 A2992 RMK AO2 SLP131 T01670117

TAF KLAX
Valid from the 25 at 02:00 until the 26 at 06:00 UTC


250200Z 2502/2606 26014KT P6SM SCT035
FM250330 26008KT P6SM SKC
FM250500 VRB03KT P6SM SCT015 OVC025
FM251000 VRB03KT P6SM BKN015 OVC025
FM251500 13006KT P6SM SCT015 OVC025
FM251800 24007KT P6SM BKN025
FM252100 26014KT P6SM FEW035
FM260200 26008KT P6SM SKC
KZLA FIR / North America



MET'MAP, your aeronautical weather chart ! - Copyright ORBIFLY December 2007 - Disclaimer

ORBIFLY MET'MAP TEAM :

Programming & Development : Alexandra Zaïnal
Original concept : Baudouin d'Aumeries
Technical & hardware support : Manuel Goepfert
Assistance : Marc-Olivier Méhu




SOURCES & CREDITS :

   NOAA       Earth
Advisory